• Join FlightAware (Why Join?)
  • Login
  • US Flag 
09:10PM EDT


 

Airport Tracker/Info


-or-


 

Live Flight TrackerFlight Track Log ✈ N87CA ✈ 18-May-2013 ✈ KRYY - KGMU

Flight Track Log - Related Links

Times and Time Zones

All times are in EDT time to prevent confusion due to time zone crossing. See the N87CA flight status page for this flight to view local times or setup timezone preferences in your user account.

Time Position Orientation Groundspeed Altitude Reporting Facility
EDT Latitude Longitude Course Direction KTS MPH feet Rate Location/Type
03:11PM 34.0500 -84.5667 102° East 152 175 4,000  Level Atlanta TRACON
03:12PM 34.0500 -84.5167 90° East 160 184 5,400 1,260 Climbing Atlanta TRACON
03:13PM 34.0667 -84.4667 68° East 145 167 6,600 840 Climbing Atlanta TRACON
03:14PM 34.0833 -84.4167 68° East 171 197 7,100 180 Climbing Atlanta TRACON
03:15PM 34.0944 -84.3472 79° East 199 229 7,000 -60 Descending Atlanta Center
03:16PM 34.1468 -84.2477 102° East  Level Estimated
03:16PM 34.1072 -84.2797 77° East 209 241 7,000  Level Atlanta Center
03:17PM 34.1239 -84.2144 73° East 229 264 7,000 -60 Level Atlanta Center
03:18PM 34.1364 -84.1392 79° East 217 250 6,900 -60 Descending Atlanta Center
03:19PM 34.1511 -84.0714 75° East 212 244 6,900  Level Atlanta Center
03:20PM 34.1678 -84.0011 74° East 212 244 7,000  Climbing Atlanta Center
03:21PM 34.1803 -83.9333 77° East 202 232 7,000  Level Atlanta Center
03:22PM 34.1969 -83.8681 73° East 202 232 7,000  Level Atlanta Center
03:23PM 34.2094 -83.7950 78° East 207 238 7,000 -60 Level Atlanta Center
03:24PM 34.2342 -83.7347 64° Northeast 201 231 6,900 -60 Descending Atlanta Center
03:25PM 34.2633 -83.6744 60° Northeast 201 231 6,900  Level Atlanta Center
03:26PM 34.2922 -83.6114 61° Northeast 208 239 6,900  Level Atlanta Center
03:27PM 34.3150 -83.5583 63° Northeast 208 239 7,000  Climbing Atlanta Center
03:28PM 34.3442 -83.4928 62° Northeast 203 234 6,900 -60 Descending Atlanta Center
03:29PM 34.3708 -83.4322 62° Northeast 203 234 6,900  Level Atlanta Center
03:30PM 34.3978 -83.3717 62° Northeast 203 234 6,900  Level Atlanta Center
03:31PM 34.4244 -83.3086 63° Northeast 203 234 6,900  Level Atlanta Center
03:32PM 34.4511 -83.2478 62° Northeast 203 234 7,000  Climbing Atlanta Center
03:33PM 34.4819 -83.1819 60° Northeast 203 234 7,000  Level Atlanta Center
03:34PM 34.5067 -83.1211 64° Northeast 203 234 7,000 -60 Level Atlanta Center
03:35PM 34.5375 -83.0578 59° Northeast 208 239 6,900 -60 Descending Atlanta Center
03:36PM 34.5642 -82.9944 63° Northeast 203 234 6,900  Level Atlanta Center
03:37PM 34.5928 -82.9311 61° Northeast 203 234 7,000  Climbing Atlanta Center
03:38PM 34.6194 -82.8703 62° Northeast 203 234 6,900 -60 Descending Atlanta Center
03:39PM 34.6458 -82.8067 63° Northeast 203 234 6,900 -420 Level Atlanta Center
03:40PM 34.6514 -82.7358 85° East 203 234 6,100 -840 Descending Atlanta Center
03:41PM 34.6569 -82.6650 85° East 203 234 5,300 -900 Descending Atlanta Center
03:42PM 34.6603 -82.5969 87° East 203 234 4,400 -660 Descending Atlanta Center
03:43PM 34.6656 -82.5261 85° East 203 234 4,000 -420 Descending Atlanta Center
03:45PM 34.7225 -82.4664 41° Northeast  Level FlightAware Approximate
03:52PM 34.8333 -82.3500 North  Level FlightAware Approximate
03:53PM 34.8479 -82.3500 North  Level Estimated
03:54PM 34.8479 -82.3500 North  Level Estimated
03:55PM 34.8479 -82.3500 North  Level Estimated
03:56PM 34.8479 -82.3500 North  Level Estimated
03:57PM 34.8479 -82.3500 North  Level Estimated